Time;durP1;ratioP1;P1;durP2;ratioP2;P2;SDS_P1;SDS_P2;PMS_P1;PMS_P2;Temp;Humidity;BMP_temperature;BMP_pressure;BME280_temperature;BME280_humidity;BME280_pressure;Samples;Min_cycle;Max_cycle;Signal;HPM_P1;HPM_P2
2024/03/23 00:02:41;;;;;;;3.33;3.03;;;13.80;53.00;;;;;;5292887;22;20329;-59
2024/03/23 00:05:06;;;;;;;4.20;2.97;;;13.80;53.50;;;;;;4989178;28;20210;-58
2024/03/23 00:07:33;;;;;;;3.60;3.00;;;13.80;53.80;;;;;;4984642;28;20577;-58
2024/03/23 00:09:58;;;;;;;4.43;2.90;;;13.80;54.10;;;;;;4988806;28;20221;-59
2024/03/23 00:12:25;;;;;;;3.93;2.60;;;13.80;53.40;;;;;;4988529;28;20226;-58
2024/03/23 00:14:52;;;;;;;3.70;3.00;;;13.70;52.30;;;;;;4971602;28;20241;-59
2024/03/23 00:17:19;;;;;;;3.97;2.93;;;13.60;52.20;;;;;;4971330;28;20234;-59
2024/03/23 00:19:45;;;;;;;3.97;2.97;;;13.60;52.20;;;;;;4972857;28;20207;-58
2024/03/23 00:22:11;;;;;;;3.10;2.80;;;13.50;52.10;;;;;;4978321;28;20258;-59
2024/03/23 00:24:37;;;;;;;2.93;2.67;;;13.40;52.00;;;;;;4973627;28;20205;-58
2024/03/23 00:27:03;;;;;;;3.07;2.70;;;13.40;52.00;;;;;;4976233;28;20205;-60
2024/03/23 00:29:29;;;;;;;2.80;2.60;;;13.50;50.70;;;;;;4977827;28;20215;-58
2024/03/23 00:31:55;;;;;;;2.80;2.53;;;13.40;50.50;;;;;;4975282;28;20322;-58
2024/03/23 00:34:21;;;;;;;2.80;2.40;;;13.50;49.20;;;;;;4977960;28;20686;-59
2024/03/23 00:36:48;;;;;;;3.70;2.23;;;13.40;49.30;;;;;;4969388;28;20246;-57
2024/03/23 00:39:14;;;;;;;2.43;2.23;;;13.50;48.70;;;;;;4969739;28;20218;-58
2024/03/23 00:44:25;;;;;;;2.50;2.30;;;13.60;47.70;;;;;;4974099;28;20198;-59
2024/03/23 00:46:50;;;;;;;3.43;2.27;;;13.60;47.60;;;;;;4971875;28;20226;-59
2024/03/23 00:49:17;;;;;;;2.30;2.10;;;13.60;47.70;;;;;;4967022;28;20207;-57
2024/03/23 00:51:42;;;;;;;2.63;2.43;;;13.50;47.50;;;;;;4973473;28;20238;-58
2024/03/23 00:54:09;;;;;;;3.83;2.50;;;13.60;47.60;;;;;;4977561;28;20205;-59
2024/03/23 00:56:34;;;;;;;2.50;2.30;;;13.60;47.10;;;;;;4976736;28;20228;-59
2024/03/23 00:59:01;;;;;;;3.07;2.30;;;13.60;47.10;;;;;;4976512;28;20212;-58
2024/03/23 01:01:27;;;;;;;3.47;2.33;;;13.60;47.60;;;;;;4965351;28;20253;-60
2024/03/23 01:03:53;;;;;;;2.73;1.90;;;13.50;47.40;;;;;;4975817;28;20681;-59
2024/03/23 01:06:19;;;;;;;5.07;2.40;;;13.50;47.30;;;;;;4976737;28;20207;-61
2024/03/23 01:08:45;;;;;;;1.90;1.80;;;13.50;47.30;;;;;;4970783;28;20205;-58
2024/03/23 01:11:11;;;;;;;2.33;2.10;;;13.40;47.50;;;;;;4968751;28;20215;-58
2024/03/23 01:13:38;;;;;;;2.43;2.17;;;13.50;47.10;;;;;;4976257;28;20582;-58
2024/03/23 01:16:04;;;;;;;2.50;2.10;;;13.50;47.30;;;;;;4973896;28;20207;-59
2024/03/23 01:18:30;;;;;;;3.33;2.13;;;13.50;47.60;;;;;;4977097;28;20294;-59
2024/03/23 01:20:56;;;;;;;2.57;2.00;;;13.60;47.30;;;;;;4977245;28;20219;-59
2024/03/23 01:23:22;;;;;;;2.20;2.00;;;13.50;47.60;;;;;;4975079;28;20227;-58
2024/03/23 01:25:48;;;;;;;2.30;2.10;;;13.50;47.50;;;;;;4969067;28;20253;-59
2024/03/23 01:28:14;;;;;;;2.57;1.80;;;13.60;47.40;;;;;;4974024;28;20211;-59
2024/03/23 01:30:40;;;;;;;2.13;1.93;;;13.50;47.60;;;;;;4972990;28;20238;-59
2024/03/23 01:33:07;;;;;;;2.20;2.00;;;13.50;48.10;;;;;;4977225;28;20230;-59
2024/03/23 01:35:32;;;;;;;2.53;2.33;;;13.40;47.70;;;;;;4973873;28;20211;-59
2024/03/23 01:37:59;;;;;;;2.10;1.90;;;13.50;47.80;;;;;;4977128;28;20315;-59
2024/03/23 01:40:27;;;;;;;2.00;1.80;;;13.40;48.00;;;;;;4973930;28;20212;-59
2024/03/23 01:42:53;;;;;;;2.13;1.97;;;13.30;48.30;;;;;;4968092;28;20733;-58
2024/03/23 01:45:19;;;;;;;2.67;2.10;;;13.40;48.10;;;;;;4967073;28;20221;-59
2024/03/23 01:47:46;;;;;;;4.87;2.23;;;13.40;47.90;;;;;;4973065;28;20244;-59
2024/03/23 01:50:12;;;;;;;2.50;1.70;;;13.40;48.20;;;;;;4968950;28;20244;-59
2024/03/23 01:52:38;;;;;;;2.50;1.90;;;13.40;48.50;;;;;;4977731;28;20722;-59
2024/03/23 01:55:04;;;;;;;2.13;1.80;;;13.30;48.60;;;;;;4975651;28;20209;-59
2024/03/23 01:57:30;;;;;;;2.50;2.10;;;13.30;48.70;;;;;;4969438;28;20313;-58
2024/03/23 01:59:56;;;;;;;1.93;1.83;;;13.30;48.90;;;;;;4972584;28;20216;-59
2024/03/23 02:02:22;;;;;;;3.10;2.10;;;13.30;49.80;;;;;;4968972;28;20225;-59
2024/03/23 02:04:48;;;;;;;2.00;1.80;;;13.30;48.90;;;;;;4959350;28;20220;-59
2024/03/23 02:07:15;;;;;;;2.07;1.90;;;13.40;49.00;;;;;;4974952;28;20204;-59
2024/03/23 02:09:40;;;;;;;2.40;2.30;;;13.30;49.20;;;;;;4963925;28;20213;-58
2024/03/23 02:12:07;;;;;;;2.40;2.20;;;13.30;49.00;;;;;;4975905;28;20242;-57
2024/03/23 02:14:32;;;;;;;2.00;1.90;;;13.30;49.30;;;;;;4969950;28;20226;-59
2024/03/23 02:16:59;;;;;;;2.23;2.13;;;13.30;49.30;;;;;;4973716;28;20732;-59
2024/03/23 02:19:25;;;;;;;2.00;1.90;;;13.20;49.70;;;;;;4976154;28;20209;-58
2024/03/23 02:21:51;;;;;;;2.40;2.20;;;13.10;50.10;;;;;;4975716;28;20231;-58
2024/03/23 02:24:17;;;;;;;2.40;2.13;;;13.10;50.20;;;;;;4973610;28;20217;-58
2024/03/23 02:26:43;;;;;;;2.50;2.30;;;12.90;50.70;;;;;;4971043;28;20198;-57
2024/03/23 02:29:09;;;;;;;3.03;2.10;;;13.00;50.50;;;;;;4967725;28;20205;-58
2024/03/23 02:31:35;;;;;;;2.03;1.93;;;13.00;50.60;;;;;;4976623;28;20237;-59
2024/03/23 02:34:01;;;;;;;2.13;2.00;;;13.00;50.80;;;;;;4975705;28;20310;-59
2024/03/23 02:36:28;;;;;;;2.63;2.40;;;13.00;51.10;;;;;;4975724;28;20233;-59
2024/03/23 02:38:53;;;;;;;2.30;1.93;;;13.10;51.40;;;;;;4970171;28;20202;-59
2024/03/23 02:41:22;;;;;;;2.63;1.97;;;13.10;51.80;;;;;;4975915;28;20211;-59
2024/03/23 02:43:48;;;;;;;2.10;1.90;;;13.00;52.10;;;;;;4976269;28;20209;-59
2024/03/23 02:46:14;;;;;;;1.87;1.77;;;13.00;51.90;;;;;;4972236;28;20299;-58
2024/03/23 02:48:40;;;;;;;2.00;1.90;;;13.00;52.20;;;;;;4971819;28;20213;-59
2024/03/23 02:51:07;;;;;;;2.03;1.93;;;13.00;52.10;;;;;;4971719;28;20591;-59
2024/03/23 02:53:32;;;;;;;2.20;2.00;;;13.00;53.10;;;;;;4973043;28;20205;-59
2024/03/23 02:55:59;;;;;;;2.50;2.23;;;12.90;54.40;;;;;;4974165;28;20214;-59
2024/03/23 02:58:25;;;;;;;2.03;1.83;;;12.90;55.00;;;;;;4975876;28;20229;-59
2024/03/23 03:00:51;;;;;;;3.20;2.00;;;13.00;55.10;;;;;;4975745;28;20206;-59
2024/03/23 03:03:17;;;;;;;2.40;2.20;;;12.90;55.80;;;;;;4977216;28;20236;-59
2024/03/23 03:05:43;;;;;;;3.10;2.00;;;12.90;55.90;;;;;;4976723;28;20271;-59
2024/03/23 03:08:09;;;;;;;2.40;1.90;;;12.80;56.00;;;;;;4976352;28;20211;-59
2024/03/23 03:10:36;;;;;;;2.07;1.87;;;12.80;56.40;;;;;;4974500;28;20604;-59
2024/03/23 03:13:02;;;;;;;2.50;2.10;;;12.80;56.00;;;;;;4975533;28;20228;-57
2024/03/23 03:15:28;;;;;;;2.83;2.17;;;12.80;55.70;;;;;;4971071;28;20297;-59
2024/03/23 03:17:55;;;;;;;2.40;2.20;;;12.80;56.30;;;;;;4971304;28;20320;-59
2024/03/23 03:20:21;;;;;;;2.40;2.20;;;12.70;56.80;;;;;;4973149;28;20759;-59
2024/03/23 03:22:48;;;;;;;2.40;1.97;;;12.70;56.50;;;;;;4974871;28;20225;-59
2024/03/23 03:25:14;;;;;;;2.10;1.97;;;12.80;56.50;;;;;;4967844;28;20205;-59
2024/03/23 03:27:40;;;;;;;2.97;2.03;;;12.80;57.00;;;;;;4974144;28;20627;-58
2024/03/23 03:30:08;;;;;;;2.67;2.27;;;12.70;43.00;;;;;;4973809;28;20223;-58
2024/03/23 03:32:35;;;;;;;2.50;2.00;;;12.60;42.20;;;;;;4973754;28;20259;-57
2024/03/23 03:35:00;;;;;;;2.00;1.90;;;12.60;42.20;;;;;;4973217;28;20209;-59
2024/03/23 03:37:27;;;;;;;4.77;2.37;;;12.60;42.30;;;;;;4973978;28;20295;-59
2024/03/23 03:39:52;;;;;;;3.80;2.40;;;12.60;42.20;;;;;;4967840;28;20208;-58
2024/03/23 03:42:19;;;;;;;3.60;2.20;;;12.50;42.40;;;;;;4974240;28;20231;-58
2024/03/23 03:44:44;;;;;;;2.23;2.03;;;12.50;42.40;;;;;;4973577;28;20212;-58
2024/03/23 03:47:11;;;;;;;2.37;2.17;;;12.50;42.50;;;;;;4973604;28;20227;-59
2024/03/23 03:49:36;;;;;;;2.43;2.20;;;12.50;42.30;;;;;;4968731;28;20274;-58
2024/03/23 03:52:03;;;;;;;2.93;2.60;;;12.50;42.50;;;;;;4974080;28;20276;-59
2024/03/23 03:54:29;;;;;;;3.07;2.30;;;12.40;42.80;;;;;;4972221;28;20219;-59
2024/03/23 03:56:55;;;;;;;3.53;2.20;;;12.40;42.90;;;;;;4974403;28;20703;-59
2024/03/23 03:59:21;;;;;;;2.83;2.47;;;12.30;43.20;;;;;;4974827;28;20587;-58
2024/03/23 04:01:47;;;;;;;2.20;2.00;;;12.30;43.10;;;;;;4973323;28;20313;-57
2024/03/23 04:04:14;;;;;;;3.53;2.20;;;12.30;43.10;;;;;;4973808;28;20215;-58
2024/03/23 04:06:40;;;;;;;2.63;2.40;;;12.30;43.20;;;;;;4977265;28;20215;-59
2024/03/23 04:09:06;;;;;;;2.53;2.33;;;12.20;43.30;;;;;;4975496;28;21336;-58
2024/03/23 04:11:33;;;;;;;2.67;2.37;;;12.20;43.60;;;;;;4978003;28;20313;-58
2024/03/23 04:13:58;;;;;;;2.67;2.47;;;12.20;43.40;;;;;;4977998;28;20219;-59
2024/03/23 04:16:25;;;;;;;3.40;2.37;;;12.20;58.10;;;;;;4972787;28;20660;-56
2024/03/23 04:18:50;;;;;;;2.63;2.43;;;12.20;63.00;;;;;;4978417;28;20208;-59
2024/03/23 04:21:17;;;;;;;2.50;2.30;;;12.20;64.70;;;;;;4978249;28;20214;-57
2024/03/23 04:23:43;;;;;;;2.63;2.10;;;12.10;64.70;;;;;;4977844;28;20212;-59
2024/03/23 04:26:09;;;;;;;2.50;2.30;;;12.10;64.00;;;;;;4965501;28;20201;-58
2024/03/23 04:28:35;;;;;;;2.90;2.17;;;12.30;63.40;;;;;;4977911;28;20309;-58
2024/03/23 04:31:01;;;;;;;3.33;1.93;;;12.10;63.20;;;;;;4977945;28;20211;-59
2024/03/23 04:33:27;;;;;;;2.67;2.47;;;12.20;63.10;;;;;;4977862;28;20291;-57
2024/03/23 04:35:53;;;;;;;2.43;2.23;;;12.10;62.60;;;;;;4973920;28;20641;-57
2024/03/23 04:38:20;;;;;;;3.33;2.70;;;12.20;62.50;;;;;;4972817;28;23092;-58
2024/03/23 04:40:47;;;;;;;3.10;2.20;;;12.20;62.40;;;;;;4975116;28;20583;-60
2024/03/23 04:43:13;;;;;;;2.60;2.40;;;12.30;61.90;;;;;;4969551;28;20233;-59
2024/03/23 04:45:40;;;;;;;2.40;2.20;;;12.30;61.90;;;;;;4977246;28;20212;-57
2024/03/23 04:48:06;;;;;;;4.07;2.33;;;12.30;61.60;;;;;;4974404;28;20583;-59
2024/03/23 04:50:33;;;;;;;3.93;2.60;;;12.30;61.80;;;;;;4971813;28;20411;-58
2024/03/23 04:52:59;;;;;;;2.40;2.20;;;12.30;61.40;;;;;;4970404;28;20326;-59
2024/03/23 04:55:26;;;;;;;2.20;2.00;;;12.30;61.30;;;;;;4971526;28;20208;-58
2024/03/23 04:57:52;;;;;;;2.30;2.10;;;12.30;61.00;;;;;;4974651;28;20319;-59
2024/03/23 05:00:18;;;;;;;2.50;2.30;;;12.30;60.70;;;;;;4976705;28;20647;-57
2024/03/23 05:02:45;;;;;;;2.53;2.33;;;12.30;61.10;;;;;;4960912;28;20253;-58
2024/03/23 05:05:12;;;;;;;2.90;2.23;;;12.30;60.60;;;;;;4976274;28;20247;-59
2024/03/23 05:07:37;;;;;;;3.10;2.30;;;12.30;60.20;;;;;;4966184;28;20207;-58
2024/03/23 05:10:04;;;;;;;2.33;2.00;;;12.40;60.00;;;;;;4971615;28;20298;-58
2024/03/23 05:12:29;;;;;;;2.57;2.20;;;12.40;60.00;;;;;;4962822;28;20247;-58
2024/03/23 05:14:56;;;;;;;2.30;2.10;;;12.30;59.90;;;;;;4972793;28;20212;-57
2024/03/23 05:17:22;;;;;;;2.27;2.13;;;12.30;59.90;;;;;;4969497;28;20303;-59
2024/03/23 05:19:48;;;;;;;2.00;1.90;;;12.40;60.00;;;;;;4976457;28;20239;-58
2024/03/23 05:22:14;;;;;;;2.20;2.00;;;12.30;59.90;;;;;;4977024;28;20262;-58
2024/03/23 05:24:40;;;;;;;2.53;1.90;;;12.40;60.00;;;;;;4972463;28;20210;-59
2024/03/23 05:27:06;;;;;;;2.33;2.10;;;12.30;59.90;;;;;;4973774;28;20683;-59
2024/03/23 05:29:32;;;;;;;2.40;2.20;;;12.30;60.30;;;;;;4976464;28;20210;-59
2024/03/23 05:31:58;;;;;;;2.60;2.40;;;12.20;60.30;;;;;;4976682;28;20243;-59
2024/03/23 05:34:25;;;;;;;2.50;2.30;;;12.20;60.70;;;;;;4976793;28;20216;-59
2024/03/23 05:36:50;;;;;;;2.73;2.27;;;12.20;60.50;;;;;;4974012;28;20205;-59
2024/03/23 05:39:17;;;;;;;2.33;2.17;;;12.30;60.60;;;;;;4976398;28;20216;-59
2024/03/23 05:41:43;;;;;;;2.17;2.00;;;12.10;61.00;;;;;;4976014;28;20666;-59
2024/03/23 05:44:10;;;;;;;2.40;2.20;;;12.20;61.00;;;;;;4965017;28;20235;-59
2024/03/23 05:46:36;;;;;;;2.40;2.13;;;12.30;61.00;;;;;;4975323;28;20278;-59
2024/03/23 05:49:03;;;;;;;2.73;2.03;;;12.20;60.80;;;;;;4973698;28;20298;-59
2024/03/23 05:51:28;;;;;;;2.40;2.30;;;12.20;61.00;;;;;;4976983;28;20239;-59
2024/03/23 05:53:55;;;;;;;3.33;2.30;;;12.20;61.40;;;;;;4970947;28;20579;-59
2024/03/23 05:56:20;;;;;;;2.43;2.23;;;12.20;61.10;;;;;;4972926;28;20710;-59
2024/03/23 05:58:48;;;;;;;2.73;2.10;;;12.10;61.30;;;;;;4977758;28;20231;-59
2024/03/23 06:01:13;;;;;;;2.90;2.70;;;12.10;61.40;;;;;;4974547;28;20210;-59
2024/03/23 06:03:40;;;;;;;2.60;2.40;;;12.10;61.30;;;;;;4977112;28;20283;-59
2024/03/23 06:06:10;;;;;;;2.40;2.20;;;12.10;61.20;;;;;;4976548;28;20235;-59
2024/03/23 06:08:38;;;;;;;2.50;2.10;;;12.10;61.30;;;;;;4976949;28;20208;-59
2024/03/23 06:11:04;;;;;;;4.23;1.80;;;12.10;61.40;;;;;;4972147;28;20206;-59
2024/03/23 06:13:30;;;;;;;4.10;2.60;;;12.20;61.50;;;;;;4977151;28;20271;-59
2024/03/23 06:15:56;;;;;;;2.80;2.37;;;12.30;61.10;;;;;;4977498;28;20220;-59
2024/03/23 06:18:22;;;;;;;2.70;1.93;;;12.50;61.30;;;;;;4976999;28;20229;-58
2024/03/23 06:20:48;;;;;;;4.70;3.43;;;12.60;60.30;;;;;;4978540;28;20212;-59
2024/03/23 06:23:15;;;;;;;3.17;2.50;;;12.80;60.40;;;;;;4977655;28;20738;-59
2024/03/23 06:25:41;;;;;;;2.53;2.17;;;12.90;60.20;;;;;;4970606;28;20299;-59
2024/03/23 06:28:07;;;;;;;2.47;2.07;;;13.10;59.50;;;;;;4975370;28;20284;-59
2024/03/23 06:30:33;;;;;;;2.77;2.10;;;13.30;59.40;;;;;;4977720;28;20272;-59
2024/03/23 06:33:00;;;;;;;2.57;2.37;;;13.50;58.80;;;;;;4978484;28;20256;-59
2024/03/23 06:35:25;;;;;;;2.70;2.40;;;13.50;58.60;;;;;;4976014;28;20298;-59
2024/03/23 06:37:52;;;;;;;2.53;2.23;;;13.70;58.00;;;;;;4970358;28;20270;-58
2024/03/23 06:40:17;;;;;;;2.97;2.20;;;13.80;57.90;;;;;;4978641;28;20679;-59
2024/03/23 06:42:44;;;;;;;3.70;2.30;;;13.90;57.70;;;;;;4976978;28;20227;-59
2024/03/23 06:45:09;;;;;;;3.00;2.20;;;14.00;57.20;;;;;;4974906;28;20216;-59
2024/03/23 06:47:36;;;;;;;5.03;2.30;;;14.20;56.90;;;;;;4976841;28;20213;-58
2024/03/23 06:50:02;;;;;;;2.60;2.17;;;14.20;56.70;;;;;;4979197;28;20208;-59
2024/03/23 06:52:28;;;;;;;3.40;2.17;;;14.20;56.50;;;;;;4978630;28;20274;-59
2024/03/23 06:54:54;;;;;;;3.40;1.90;;;14.30;57.00;;;;;;4970990;28;20217;-57
2024/03/23 06:57:20;;;;;;;2.43;1.90;;;14.50;56.70;;;;;;4969455;28;20284;-60
2024/03/23 06:59:46;;;;;;;3.07;2.17;;;14.70;55.80;;;;;;4966608;28;20208;-59
2024/03/23 07:02:13;;;;;;;3.23;1.67;;;14.90;55.40;;;;;;4966251;28;20327;-59
2024/03/23 07:04:39;;;;;;;1.97;1.87;;;15.20;54.40;;;;;;4973329;28;20309;-58
2024/03/23 07:07:05;;;;;;;1.80;1.70;;;15.50;53.90;;;;;;4971738;28;20205;-59
2024/03/23 07:09:31;;;;;;;2.00;1.90;;;15.40;53.80;;;;;;4969188;28;20300;-57
2024/03/23 07:11:58;;;;;;;4.47;2.83;;;15.20;54.20;;;;;;4969491;28;20229;-58
2024/03/23 07:14:24;;;;;;;3.60;2.10;;;15.00;55.20;;;;;;4974465;28;20713;-59
2024/03/23 07:16:50;;;;;;;2.03;1.93;;;15.00;55.60;;;;;;4974480;28;20295;-59
2024/03/23 07:19:16;;;;;;;1.83;1.70;;;15.10;55.70;;;;;;4970085;28;20294;-59
2024/03/23 07:21:42;;;;;;;1.90;1.80;;;15.00;55.80;;;;;;4968370;28;20261;-59
2024/03/23 07:24:08;;;;;;;2.60;2.13;;;15.00;55.80;;;;;;4971019;28;20206;-59
2024/03/23 07:26:35;;;;;;;2.13;1.93;;;15.00;56.10;;;;;;4977926;28;20239;-59
2024/03/23 07:29:00;;;;;;;2.00;1.80;;;14.90;56.30;;;;;;4979415;28;20205;-59
2024/03/23 07:31:27;;;;;;;4.20;2.00;;;14.90;56.40;;;;;;4977865;28;20752;-59
2024/03/23 07:33:52;;;;;;;2.40;1.60;;;14.80;56.30;;;;;;4975834;28;20213;-59
2024/03/23 07:36:19;;;;;;;2.20;2.00;;;14.80;56.60;;;;;;4962713;28;20212;-59
2024/03/23 07:38:44;;;;;;;2.03;1.90;;;14.80;56.90;;;;;;4975175;28;20239;-59
2024/03/23 07:41:11;;;;;;;3.97;1.80;;;14.70;56.60;;;;;;4971986;28;20212;-59
2024/03/23 07:43:37;;;;;;;2.37;2.00;;;14.60;57.80;;;;;;4968188;28;20200;-59
2024/03/23 07:46:04;;;;;;;2.43;2.20;;;14.50;61.00;;;;;;4975774;28;20674;-59
2024/03/23 07:48:30;;;;;;;3.10;2.30;;;14.10;64.70;;;;;;4969429;28;20244;-62
2024/03/23 07:50:56;;;;;;;4.23;2.17;;;13.70;68.50;;;;;;4980132;28;20215;-60
2024/03/23 07:53:22;;;;;;;2.27;2.10;;;13.60;68.60;;;;;;4973848;28;20228;-59
2024/03/23 07:55:49;;;;;;;2.73;2.10;;;13.50;69.30;;;;;;4974023;28;20273;-59
2024/03/23 07:58:14;;;;;;;3.03;2.30;;;13.40;70.10;;;;;;4972782;28;20663;-59
2024/03/23 08:00:41;;;;;;;4.37;2.30;;;13.20;70.90;;;;;;4973238;28;20224;-59
2024/03/23 08:03:06;;;;;;;2.60;2.40;;;13.20;71.80;;;;;;4975587;28;20750;-59
2024/03/23 08:05:33;;;;;;;2.40;2.20;;;13.00;73.80;;;;;;4976106;28;20209;-59
2024/03/23 08:07:59;;;;;;;2.30;2.10;;;12.80;75.00;;;;;;4978722;28;20668;-58
2024/03/23 08:10:26;;;;;;;2.57;2.20;;;12.80;76.00;;;;;;4968812;28;20206;-58
2024/03/23 08:12:51;;;;;;;2.50;2.20;;;12.70;76.90;;;;;;4969980;28;20227;-59
2024/03/23 08:15:18;;;;;;;2.50;2.30;;;12.60;77.90;;;;;;4968805;28;20209;-59
2024/03/23 08:17:44;;;;;;;2.63;2.20;;;;;;;;;;4979073;28;20232;-58
2024/03/23 08:20:11;;;;;;;2.60;2.40;;;;;;;;;;4967645;28;20213;-62
2024/03/23 08:22:37;;;;;;;3.67;2.53;;;12.10;92.50;;;;;;4964416;28;20256;-61
2024/03/23 08:25:03;;;;;;;4.67;2.40;;;12.30;93.00;;;;;;4960062;28;20296;-61
2024/03/23 08:27:29;;;;;;;2.20;2.10;;;12.10;93.30;;;;;;4975428;28;20605;-61
2024/03/23 08:29:55;;;;;;;3.13;2.80;;;12.10;93.20;;;;;;4971992;28;20284;-61
2024/03/23 08:32:21;;;;;;;3.87;2.43;;;12.10;93.40;;;;;;4975284;28;20236;-61
2024/03/23 08:34:47;;;;;;;3.33;2.10;;;11.80;93.70;;;;;;4971945;28;20204;-61
2024/03/23 08:37:13;;;;;;;2.40;2.20;;;11.80;93.10;;;;;;4967912;28;20675;-61
2024/03/23 08:39:40;;;;;;;2.60;2.03;;;11.50;93.00;;;;;;4976258;28;20218;-61
2024/03/23 08:42:05;;;;;;;2.20;2.00;;;11.60;92.90;;;;;;4976653;28;20232;-61
2024/03/23 08:44:32;;;;;;;2.13;1.93;;;11.50;91.70;;;;;;4964955;28;20269;-60
2024/03/23 08:46:57;;;;;;;1.90;1.80;;;11.60;87.70;;;;;;4961096;28;20246;-60
2024/03/23 08:49:24;;;;;;;2.77;2.10;;;11.70;85.20;;;;;;4964485;28;20201;-61
2024/03/23 08:51:49;;;;;;;2.37;2.17;;;11.50;84.70;;;;;;4965899;28;20256;-61
2024/03/23 08:54:16;;;;;;;2.83;2.23;;;11.40;85.50;;;;;;4971841;28;20209;-60
2024/03/23 08:56:41;;;;;;;2.53;1.97;;;11.50;85.30;;;;;;4970898;28;20219;-61
2024/03/23 08:59:08;;;;;;;2.00;1.90;;;11.40;86.10;;;;;;4972780;28;20721;-60
2024/03/23 09:01:34;;;;;;;2.00;1.90;;;11.20;85.30;;;;;;4969893;28;20235;-61
2024/03/23 09:04:00;;;;;;;2.00;1.90;;;11.30;86.00;;;;;;4969326;28;20224;-60
2024/03/23 09:06:26;;;;;;;2.73;2.30;;;11.30;86.50;;;;;;4967788;28;20216;-61
2024/03/23 09:08:52;;;;;;;2.27;2.17;;;11.40;86.10;;;;;;4974732;28;20207;-61
2024/03/23 09:11:18;;;;;;;3.13;2.30;;;11.30;86.00;;;;;;4964955;28;20212;-61
2024/03/23 09:13:44;;;;;;;2.83;2.60;;;11.10;86.20;;;;;;4970133;28;20203;-61
2024/03/23 09:16:10;;;;;;;2.70;2.10;;;11.00;87.60;;;;;;4972820;28;20219;-61
2024/03/23 09:18:37;;;;;;;2.40;2.03;;;11.10;87.70;;;;;;4945131;28;20229;-62
2024/03/23 09:21:02;;;;;;;3.60;2.60;;;11.00;88.60;;;;;;4965882;28;20667;-60
2024/03/23 09:23:29;;;;;;;2.43;2.23;;;10.90;88.70;;;;;;4973599;28;20214;-61
2024/03/23 09:25:55;;;;;;;3.97;2.70;;;10.90;89.00;;;;;;4967097;28;20215;-60
2024/03/23 09:28:21;;;;;;;2.77;2.40;;;11.00;89.30;;;;;;4956948;28;20325;-60
2024/03/23 09:30:47;;;;;;;2.83;2.63;;;10.90;89.60;;;;;;4959294;28;20215;-61
2024/03/23 09:33:14;;;;;;;3.50;2.50;;;10.90;89.60;;;;;;4973836;28;20714;-61
2024/03/23 09:35:39;;;;;;;2.90;2.70;;;10.90;89.50;;;;;;4963255;28;20298;-61
2024/03/23 09:38:07;;;;;;;2.80;2.50;;;10.90;88.60;;;;;;4954946;28;20319;-60
2024/03/23 09:40:32;;;;;;;3.33;2.50;;;10.90;89.90;;;;;;4967551;28;20212;-60
2024/03/23 09:42:59;;;;;;;2.50;2.30;;;11.00;88.20;;;;;;4968693;28;20228;-61
2024/03/23 09:45:24;;;;;;;2.20;2.00;;;10.80;85.60;;;;;;4963925;28;20223;-60
2024/03/23 09:47:51;;;;;;;2.07;1.97;;;10.90;83.90;;;;;;4967520;28;20199;-61
2024/03/23 09:50:17;;;;;;;1.97;1.87;;;10.90;83.70;;;;;;4962614;28;20628;-60
2024/03/23 09:52:43;;;;;;;2.00;1.80;;;10.60;83.50;;;;;;4971941;28;20282;-61
2024/03/23 09:55:09;;;;;;;1.70;1.60;;;10.60;86.10;;;;;;4974667;28;20217;-61
2024/03/23 09:57:36;;;;;;;2.10;1.90;;;10.70;85.80;;;;;;4973098;28;20198;-61
2024/03/23 10:00:01;;;;;;;2.40;2.00;;;10.70;86.90;;;;;;4965713;28;20303;-61
2024/03/23 10:02:28;;;;;;;2.20;2.10;;;10.70;88.70;;;;;;4972637;28;20253;-61
2024/03/23 10:04:54;;;;;;;1.83;1.73;;;10.70;89.20;;;;;;4966741;28;20230;-61
2024/03/23 10:07:20;;;;;;;1.50;1.40;;;10.60;87.70;;;;;;4967224;28;20238;-61
2024/03/23 10:09:46;;;;;;;1.70;1.60;;;10.70;87.70;;;;;;4961194;28;20203;-60
2024/03/23 10:12:13;;;;;;;1.60;1.50;;;10.50;87.10;;;;;;4969030;28;20737;-61
2024/03/23 10:14:39;;;;;;;1.57;1.47;;;10.30;90.40;;;;;;4965582;28;20238;-61
2024/03/23 10:17:05;;;;;;;1.50;1.40;;;10.30;90.00;;;;;;4968598;28;20210;-61
2024/03/23 10:19:31;;;;;;;1.47;1.40;;;10.40;89.40;;;;;;4967425;28;20222;-58
2024/03/23 10:22:00;;;;;;;1.50;1.40;;;10.20;88.70;;;;;;4954585;28;20735;-60
2024/03/23 10:24:25;;;;;;;1.63;1.50;;;10.10;89.00;;;;;;4949522;28;20299;-58
2024/03/23 10:26:52;;;;;;;1.87;1.70;;;10.30;88.60;;;;;;4970899;28;20291;-64
2024/03/23 10:29:17;;;;;;;1.50;1.40;;;10.30;88.20;;;;;;4963691;28;20612;-63
2024/03/23 10:31:47;;;;;;;1.57;1.47;;;10.10;89.10;;;;;;4966342;28;20227;-64
2024/03/23 10:34:12;;;;;;;2.17;1.67;;;10.10;89.30;;;;;;4972055;28;20317;-60
2024/03/23 10:36:40;;;;;;;1.97;1.87;;;10.20;90.20;;;;;;4971227;28;20231;-60
2024/03/23 10:39:06;;;;;;;1.60;1.50;;;10.20;90.40;;;;;;4961627;28;20226;-59
2024/03/23 10:41:33;;;;;;;1.70;1.60;;;10.20;89.50;;;;;;4961621;28;20260;-59
2024/03/23 10:43:58;;;;;;;1.90;1.80;;;10.20;89.30;;;;;;4968027;28;20222;-59
2024/03/23 10:46:25;;;;;;;1.77;1.67;;;10.20;89.50;;;;;;4967441;28;20207;-59
2024/03/23 10:48:50;;;;;;;1.80;1.60;;;10.40;88.20;;;;;;4962416;28;20238;-65
2024/03/23 10:51:17;;;;;;;1.80;1.53;;;9.90;88.70;;;;;;4962855;28;20218;-58
2024/03/23 10:53:42;;;;;;;1.50;1.40;;;10.10;88.50;;;;;;4971826;28;20210;-57
2024/03/23 10:56:09;;;;;;;3.87;1.50;;;10.10;83.90;;;;;;4963376;28;20705;-58
2024/03/23 10:58:35;;;;;;;1.20;1.20;;;10.10;84.90;;;;;;4962129;28;20232;-57
2024/03/23 11:01:02;;;;;;;1.30;1.30;;;10.20;83.70;;;;;;4966563;28;20214;-58
2024/03/23 11:03:27;;;;;;;1.83;1.40;;;10.10;82.60;;;;;;4942735;28;20419;-58
2024/03/23 11:05:54;;;;;;;1.40;1.30;;;9.90;84.40;;;;;;4957430;28;20200;-59
2024/03/23 11:08:21;;;;;;;1.50;1.40;;;9.90;83.70;;;;;;4945010;28;20693;-58
2024/03/23 11:10:48;;;;;;;1.33;1.30;;;10.00;81.70;;;;;;4938948;28;20204;-59
2024/03/23 11:13:13;;;;;;;1.57;1.47;;;10.10;81.40;;;;;;4939638;28;20613;-59
2024/03/23 11:15:40;;;;;;;1.70;1.60;;;10.00;82.50;;;;;;4940713;28;20214;-58
2024/03/23 11:18:07;;;;;;;1.50;1.30;;;10.10;81.80;;;;;;4963972;28;20227;-58
2024/03/23 11:20:34;;;;;;;1.30;1.20;;;10.10;82.40;;;;;;4961696;28;20215;-60
2024/03/23 11:22:59;;;;;;;1.50;1.40;;;10.30;81.80;;;;;;4964569;28;20246;-58
2024/03/23 11:25:26;;;;;;;1.83;1.43;;;10.10;82.10;;;;;;4966983;28;20206;-58
2024/03/23 11:27:52;;;;;;;1.60;1.50;;;10.20;81.70;;;;;;4964108;28;20205;-57
2024/03/23 11:30:18;;;;;;;2.60;1.80;;;10.10;82.20;;;;;;4959754;28;20233;-60
2024/03/23 11:32:44;;;;;;;1.63;1.50;;;10.10;81.30;;;;;;4964570;28;20227;-57
2024/03/23 11:35:10;;;;;;;1.60;1.50;;;10.00;81.50;;;;;;4972551;28;20207;-59
2024/03/23 11:37:36;;;;;;;1.53;1.40;;;10.10;82.40;;;;;;4976594;28;20218;-58
2024/03/23 11:40:03;;;;;;;1.70;1.60;;;10.20;81.40;;;;;;4977634;28;20215;-60
2024/03/23 11:42:28;;;;;;;1.50;1.40;;;10.00;81.80;;;;;;4957626;28;20229;-60
2024/03/23 11:44:55;;;;;;;1.60;1.50;;;10.00;81.80;;;;;;4947693;28;20216;-60
2024/03/23 11:47:21;;;;;;;1.50;1.40;;;10.10;81.30;;;;;;4967850;28;20208;-59
2024/03/23 11:49:47;;;;;;;1.80;1.70;;;10.10;79.70;;;;;;4971211;28;20206;-57
2024/03/23 11:52:13;;;;;;;1.80;1.70;;;10.20;79.80;;;;;;4968426;28;20246;-57
2024/03/23 11:54:43;;;;;;;1.87;1.60;;;10.30;78.40;;;;;;4962292;28;20202;-59
2024/03/23 11:57:08;;;;;;;1.80;1.70;;;10.40;78.70;;;;;;4969010;28;20209;-59
2024/03/23 11:59:35;;;;;;;2.00;1.70;;;10.40;79.40;;;;;;4972474;28;20238;-60
2024/03/23 12:02:00;;;;;;;3.37;1.80;;;10.50;79.20;;;;;;4971289;28;20228;-57
2024/03/23 12:04:27;;;;;;;1.87;1.77;;;10.30;78.60;;;;;;4967491;28;20219;-67
2024/03/23 12:06:53;;;;;;;1.73;1.60;;;10.20;79.20;;;;;;4971824;28;20201;-56
2024/03/23 12:09:19;;;;;;;2.17;1.97;;;10.20;77.10;;;;;;4971633;28;20204;-56
2024/03/23 12:11:45;;;;;;;1.60;1.50;;;10.20;75.20;;;;;;4963661;28;20249;-56
2024/03/23 12:14:12;;;;;;;2.00;1.70;;;10.00;75.40;;;;;;4969632;28;20218;-57
2024/03/23 12:16:37;;;;;;;1.93;1.83;;;10.00;76.00;;;;;;4962801;28;20226;-55
2024/03/23 12:19:04;;;;;;;2.13;2.00;;;10.00;76.00;;;;;;4969772;28;20727;-55
2024/03/23 12:21:29;;;;;;;2.00;1.80;;;10.10;75.70;;;;;;4970422;28;20233;-56
2024/03/23 12:23:56;;;;;;;1.70;1.60;;;10.30;75.50;;;;;;4974927;28;20207;-62
2024/03/23 12:26:23;;;;;;;2.50;2.30;;;10.20;76.20;;;;;;4957693;28;20208;-53
2024/03/23 12:28:49;;;;;;;2.40;2.17;;;10.20;76.20;;;;;;4965548;28;20209;-56
2024/03/23 12:31:15;;;;;;;3.13;2.47;;;10.40;74.80;;;;;;4971121;28;20210;-54
2024/03/23 12:33:42;;;;;;;3.97;2.10;;;10.20;71.00;;;;;;4965646;28;20214;-54
2024/03/23 12:36:07;;;;;;;2.30;2.00;;;10.30;71.90;;;;;;4969769;28;20215;-56
2024/03/23 12:38:34;;;;;;;2.83;2.30;;;10.30;69.50;;;;;;4965898;28;20275;-55
2024/03/23 12:41:00;;;;;;;2.30;2.10;;;10.50;69.20;;;;;;4969340;28;20585;-56
2024/03/23 12:43:26;;;;;;;3.20;2.17;;;10.30;68.30;;;;;;4973105;28;20231;-57
2024/03/23 12:45:52;;;;;;;2.77;2.30;;;10.40;68.50;;;;;;4968298;28;20215;-58